Time;durP1;ratioP1;P1;durP2;ratioP2;P2;SDS_P1;SDS_P2;PMS_P1;PMS_P2;Temp;Humidity;BMP_temperature;BMP_pressure;BME280_temperature;BME280_humidity;BME280_pressure;Samples;Min_cycle;Max_cycle;Signal;HPM_P1;HPM_P2
2024/01/18 00:01:10;;;;;;;9.88;7.30;;;;;;;;;;6222717;28;24491;-75
2024/01/18 00:04:13;;;;;;;10.02;7.32;;;;;;;;;;6210082;28;24451;-73
2024/01/18 00:07:14;;;;;;;22.50;13.80;;;;;;;;;;6229368;28;24443;-74
2024/01/18 00:10:16;;;;;;;74.78;37.63;;;;;;;;;;6227328;28;24432;-74
2024/01/18 00:13:18;;;;;;;102.35;47.60;;;;;;;;;;6229857;28;24444;-74
2024/01/18 00:16:20;;;;;;;89.28;42.35;;;;;;;;;;6229185;28;25473;-74
2024/01/18 00:19:23;;;;;;;63.90;31.13;;;;;;;;;;6229211;28;24423;-74
2024/01/18 00:22:25;;;;;;;58.38;29.05;;;;;;;;;;6228100;28;24570;-74
2024/01/18 00:25:27;;;;;;;121.53;54.45;;;;;;;;;;6230389;28;24432;-75
2024/01/18 00:28:31;;;;;;;63.53;29.52;;;;;;;;;;6228087;28;24420;-74
2024/01/18 00:31:33;;;;;;;62.00;31.67;;;;;;;;;;6226921;28;24436;-75
2024/01/18 00:34:36;;;;;;;45.90;23.92;;;;;;;;;;6222565;28;24443;-75
2024/01/18 00:37:38;;;;;;;27.47;15.33;;;;;;;;;;6227645;28;24423;-74
2024/01/18 00:40:41;;;;;;;17.65;10.77;;;;;;;;;;6226226;28;24554;-76
2024/01/18 00:43:43;;;;;;;14.23;9.17;;;;;;;;;;6226911;28;24506;-74
2024/01/18 00:46:46;;;;;;;12.25;8.98;;;;;;;;;;6227338;28;24619;-75
2024/01/18 00:49:49;;;;;;;14.85;9.98;;;;;;;;;;6227910;28;24840;-74
2024/01/18 00:52:51;;;;;;;14.02;10.05;;;;;;;;;;6224527;28;24560;-74
2024/01/18 00:55:54;;;;;;;13.55;10.00;;;;;;;;;;6226418;28;24856;-75
2024/01/18 00:58:57;;;;;;;14.48;10.32;;;;;;;;;;6226044;28;24421;-75
2024/01/18 01:01:59;;;;;;;13.95;10.38;;;;;;;;;;6227404;28;24433;-74
2024/01/18 01:05:03;;;;;;;13.05;10.20;;;;;;;;;;6223318;28;24856;-75
2024/01/18 01:08:05;;;;;;;13.88;10.48;;;;;;;;;;6227061;28;24420;-74
2024/01/18 01:11:08;;;;;;;14.55;10.23;;;;;;;;;;6226420;28;24603;-75
2024/01/18 01:14:10;;;;;;;13.35;9.27;;;;;;;;;;6226683;28;24444;-75
2024/01/18 01:17:12;;;;;;;14.65;9.63;;;;;;;;;;6226884;28;24416;-80
2024/01/18 01:20:15;;;;;;;12.73;9.57;;;;;;;;;;6226705;28;24562;-80
2024/01/18 01:23:17;;;;;;;12.32;9.38;;;;;;;;;;6225770;28;24848;-80
2024/01/18 01:26:19;;;;;;;13.15;9.07;;;;;;;;;;6225935;28;24900;-80
2024/01/18 01:29:21;;;;;;;13.80;10.20;;;;;;;;;;6225400;28;24660;-79
2024/01/18 01:32:23;;;;;;;15.25;11.57;;;;;;;;;;6226573;28;24433;-80
2024/01/18 01:35:26;;;;;;;16.40;12.10;;;;;;;;;;6226985;28;24417;-80
2024/01/18 01:38:28;;;;;;;17.65;12.25;;;;;;;;;;6223320;28;24857;-80
2024/01/18 01:41:31;;;;;;;15.95;11.57;;;;;;;;;;6223526;28;24596;-79
2024/01/18 01:44:35;;;;;;;15.82;11.65;;;;;;;;;;6226222;28;24427;-80
2024/01/18 01:47:37;;;;;;;17.23;12.20;;;;;;;;;;6226595;28;24432;-80
2024/01/18 01:50:40;;;;;;;17.38;12.55;;;;;;;;;;6224850;28;24436;-79
2024/01/18 01:53:42;;;;;;;18.65;12.82;;;;;;;;;;6225950;28;24428;-79
2024/01/18 01:56:46;;;;;;;19.50;14.02;;;;;;;;;;6224687;28;24463;-78
2024/01/18 01:59:48;;;;;;;21.38;14.55;;;;;;;;;;6226492;28;24433;-79
2024/01/18 02:02:50;;;;;;;22.38;16.05;;;;;;;;;;6224533;28;24801;-79
2024/01/18 02:05:53;;;;;;;21.55;15.73;;;;;;;;;;6224293;28;24416;-79
2024/01/18 02:08:55;;;;;;;22.30;15.65;;;;;;;;;;6226556;28;24428;-79
2024/01/18 02:11:57;;;;;;;21.67;15.70;;;;;;;;;;6227191;28;24471;-80
2024/01/18 02:14:59;;;;;;;23.20;16.58;;;;;;;;;;6228946;28;24642;-80
2024/01/18 02:18:01;;;;;;;23.45;16.30;;;;;;;;;;6220328;28;24696;-80
2024/01/18 02:21:05;;;;;;;25.13;17.77;;;;;;;;;;6228859;28;24626;-79
2024/01/18 02:24:12;;;;;;;25.73;18.63;;;;;;;;;;6231676;28;24488;-79
2024/01/18 02:27:15;;;;;;;26.73;18.73;;;;;;;;;;6229704;28;24508;-74
2024/01/18 02:30:17;;;;;;;28.70;20.30;;;;;;;;;;6231085;28;24714;-74
2024/01/18 02:33:19;;;;;;;31.55;20.00;;;;;;;;;;6229291;28;24456;-74
2024/01/18 02:36:21;;;;;;;33.53;21.65;;;;;;;;;;6228193;28;24515;-74
2024/01/18 02:39:23;;;;;;;35.38;22.48;;;;;;;;;;6229469;28;24550;-74
2024/01/18 02:42:28;;;;;;;35.67;22.83;;;;;;;;;;6229866;28;24431;-75
2024/01/18 02:45:31;;;;;;;41.28;25.17;;;;;;;;;;6230583;28;24491;-74
2024/01/18 02:48:33;;;;;;;37.72;23.90;;;;;;;;;;6230574;28;24431;-74
2024/01/18 02:51:35;;;;;;;42.95;26.00;;;;;;;;;;6227984;28;24836;-74
2024/01/18 02:54:36;;;;;;;43.72;27.15;;;;;;;;;;6229312;28;24439;-74
2024/01/18 02:57:41;;;;;;;40.50;26.42;;;;;;;;;;6228795;28;24891;-74
2024/01/18 03:00:43;;;;;;;44.30;26.85;;;;;;;;;;6230082;28;24657;-74
2024/01/18 03:03:45;;;;;;;40.97;26.67;;;;;;;;;;6227704;28;24413;-74
2024/01/18 03:06:46;;;;;;;39.88;25.30;;;;;;;;;;6226365;28;24464;-74
2024/01/18 03:09:49;;;;;;;40.38;25.70;;;;;;;;;;6229970;28;24424;-74
2024/01/18 03:12:52;;;;;;;41.57;26.20;;;;;;;;;;6228926;28;24711;-74
2024/01/18 03:15:54;;;;;;;40.58;25.45;;;;;;;;;;6227948;28;24447;-74
2024/01/18 03:18:56;;;;;;;40.38;25.67;;;;;;;;;;6229205;28;24424;-74
2024/01/18 03:21:58;;;;;;;38.33;24.33;;;;;;;;;;6228946;28;24555;-75
2024/01/18 03:25:00;;;;;;;38.85;24.40;;;;;;;;;;6227969;28;24412;-74
2024/01/18 03:28:04;;;;;;;38.88;24.40;;;;;;;;;;6227930;28;24500;-74
2024/01/18 03:31:06;;;;;;;41.83;25.73;;;;;;;;;;6228966;28;24444;-75
2024/01/18 03:34:08;;;;;;;44.15;27.20;;;;;;;;;;6228479;28;24682;-74
2024/01/18 03:37:10;;;;;;;41.80;26.13;;;;;;;;;;6229356;28;24443;-74
2024/01/18 03:40:12;;;;;;;41.63;26.63;;;;;;;;;;6229542;28;24435;-73
2024/01/18 03:43:15;;;;;;;43.50;27.63;;;;;;;;;;6228200;28;24785;-74
2024/01/18 03:46:17;;;;;;;43.45;27.60;;;;;;;;;;6229817;28;24429;-74
2024/01/18 03:49:22;;;;;;;41.15;26.48;;;;;;;;;;6211043;28;24476;-74
2024/01/18 03:52:24;;;;;;;41.60;26.80;;;;;;;;;;6229094;28;24510;-73
2024/01/18 03:55:26;;;;;;;44.63;26.77;;;;;;;;;;6227933;28;24412;-74
2024/01/18 03:58:29;;;;;;;42.65;26.45;;;;;;;;;;6222513;28;24482;-74
2024/01/18 04:01:32;;;;;;;39.60;25.27;;;;;;;;;;6238622;28;24856;-74
2024/01/18 04:04:33;;;;;;;43.42;26.00;;;;;;;;;;6227754;28;24610;-74
2024/01/18 04:07:35;;;;;;;42.00;26.42;;;;;;;;;;6226481;28;24424;-73
2024/01/18 04:10:37;;;;;;;42.97;26.33;;;;;;;;;;6228551;28;24662;-73
2024/01/18 04:13:41;;;;;;;41.83;25.40;;;;;;;;;;6227928;28;24416;-74
2024/01/18 04:16:42;;;;;;;40.13;24.80;;;;;;;;;;6227371;28;24645;-73
2024/01/18 04:19:44;;;;;;;37.30;23.77;;;;;;;;;;6227053;28;24500;-73
2024/01/18 04:22:46;;;;;;;39.72;24.40;;;;;;;;;;6228335;28;24424;-73
2024/01/18 04:25:51;;;;;;;40.97;25.95;;;;;;;;;;6226256;28;24432;-74
2024/01/18 04:28:56;;;;;;;41.75;25.67;;;;;;;;;;6227633;28;24428;-75
2024/01/18 04:31:58;;;;;;;44.55;27.25;;;;;;;;;;6227483;28;24527;-74
2024/01/18 04:35:00;;;;;;;43.63;27.20;;;;;;;;;;6228424;28;24425;-74
2024/01/18 04:38:02;;;;;;;45.95;27.70;;;;;;;;;;6226403;28;24420;-74
2024/01/18 04:41:05;;;;;;;51.70;30.67;;;;;;;;;;6226790;28;24812;-74
2024/01/18 04:44:08;;;;;;;52.90;31.33;;;;;;;;;;6225212;28;24443;-74
2024/01/18 04:47:11;;;;;;;53.42;31.30;;;;;;;;;;6227626;28;24419;-75
2024/01/18 04:50:13;;;;;;;55.30;32.58;;;;;;;;;;6226691;28;25045;-74
2024/01/18 04:53:16;;;;;;;54.97;33.45;;;;;;;;;;6227211;28;24431;-74
2024/01/18 04:56:18;;;;;;;56.10;33.33;;;;;;;;;;6223074;28;24447;-74
2024/01/18 04:59:21;;;;;;;60.03;34.80;;;;;;;;;;6232146;28;24425;-73
2024/01/18 05:02:23;;;;;;;59.80;34.78;;;;;;;;;;6225791;28;24821;-73
2024/01/18 05:05:25;;;;;;;60.67;34.25;;;;;;;;;;6227428;28;24419;-73
2024/01/18 05:08:27;;;;;;;60.88;34.63;;;;;;;;;;6223716;28;24833;-74
2024/01/18 05:11:29;;;;;;;64.10;36.50;;;;;;;;;;6225700;28;24427;-73
2024/01/18 05:14:32;;;;;;;68.15;37.85;;;;;;;;;;6227359;28;24478;-74
2024/01/18 05:17:36;;;;;;;66.65;37.35;;;;;;;;;;6226370;28;24626;-74
2024/01/18 05:20:37;;;;;;;65.93;37.53;;;;;;;;;;6226491;28;24456;-74
2024/01/18 05:23:39;;;;;;;69.72;38.67;;;;;;;;;;6226638;28;24438;-74
2024/01/18 05:26:41;;;;;;;67.73;37.93;;;;;;;;;;6225490;28;24512;-75
2024/01/18 05:29:47;;;;;;;70.95;38.33;;;;;;;;;;6225181;28;24622;-74
2024/01/18 05:32:49;;;;;;;73.50;39.95;;;;;;;;;;6225643;28;24430;-74
2024/01/18 05:35:51;;;;;;;70.75;39.58;;;;;;;;;;6226736;28;24439;-74
2024/01/18 05:38:53;;;;;;;76.00;39.67;;;;;;;;;;6225118;28;24471;-74
2024/01/18 05:41:55;;;;;;;74.72;42.00;;;;;;;;;;6226111;28;24420;-74
2024/01/18 05:44:58;;;;;;;76.60;41.38;;;;;;;;;;6226044;28;24420;-74
2024/01/18 05:48:01;;;;;;;81.10;42.42;;;;;;;;;;6225111;28;24701;-74
2024/01/18 05:51:03;;;;;;;89.15;46.28;;;;;;;;;;6234842;28;24471;-74
2024/01/18 05:54:05;;;;;;;82.30;45.33;;;;;;;;;;6234299;28;24907;-74
2024/01/18 05:57:08;;;;;;;90.95;47.10;;;;;;;;;;6235050;28;24421;-74
2024/01/18 06:00:13;;;;;;;91.05;47.30;;;;;;;;;;6234291;28;24432;-74
2024/01/18 06:03:15;;;;;;;95.13;48.55;;;;;;;;;;6233552;28;24532;-74
2024/01/18 06:06:17;;;;;;;94.05;48.72;;;;;;;;;;6232686;28;24817;-74
2024/01/18 06:09:19;;;;;;;94.80;49.17;;;;;;;;;;6230906;28;24545;-74
2024/01/18 06:12:21;;;;;;;89.93;47.45;;;;;;;;;;6233188;28;24428;-74
2024/01/18 06:15:24;;;;;;;96.30;48.35;;;;;;;;;;6233947;28;24540;-74
2024/01/18 06:18:26;;;;;;;94.63;48.85;;;;;;;;;;6233597;28;24420;-74
2024/01/18 06:21:27;;;;;;;93.75;48.05;;;;;;;;;;6232475;28;24420;-74
2024/01/18 06:24:29;;;;;;;97.53;49.25;;;;;;;;;;6233034;28;24432;-74
2024/01/18 06:27:31;;;;;;;91.38;46.63;;;;;;;;;;6233628;28;24650;-74
2024/01/18 06:30:43;;;;;;;93.68;47.58;;;;;;;;;;6234421;28;24614;-74
2024/01/18 06:33:45;;;;;;;91.07;45.95;;;;;;;;;;6224898;28;24444;-74
2024/01/18 06:36:48;;;;;;;99.75;47.75;;;;;;;;;;6233754;28;24527;-75
2024/01/18 06:39:50;;;;;;;95.63;46.50;;;;;;;;;;6234037;28;24433;-74
2024/01/18 06:42:55;;;;;;;94.97;48.85;;;;;;;;;;6231809;28;24663;-75
2024/01/18 06:45:58;;;;;;;94.37;47.63;;;;;;;;;;6232056;28;24431;-76
2024/01/18 06:49:00;;;;;;;92.97;47.08;;;;;;;;;;6234041;28;24420;-74
2024/01/18 06:52:02;;;;;;;97.47;48.87;;;;;;;;;;6233423;28;24515;-74
2024/01/18 06:55:06;;;;;;;97.18;48.80;;;;;;;;;;6234558;28;24424;-74
2024/01/18 06:58:08;;;;;;;93.43;47.47;;;;;;;;;;6225456;28;24535;-74
2024/01/18 07:01:13;;;;;;;90.57;47.13;;;;;;;;;;6228198;28;24436;-75
2024/01/18 07:04:15;;;;;;;97.32;48.85;;;;;;;;;;6229718;28;24456;-74
2024/01/18 07:07:17;;;;;;;93.75;47.55;;;;;;;;;;6227755;28;24627;-74
2024/01/18 07:10:20;;;;;;;89.60;47.22;;;;;;;;;;6229611;28;24411;-74
2024/01/18 07:13:22;;;;;;;88.80;46.72;;;;;;;;;;6229570;28;24417;-75
2024/01/18 07:16:26;;;;;;;91.32;47.50;;;;;;;;;;6210983;28;24423;-75
2024/01/18 07:19:29;;;;;;;82.53;43.13;;;;;;;;;;6230009;28;24429;-75
2024/01/18 07:22:31;;;;;;;82.22;43.78;;;;;;;;;;6228213;28;24415;-74
2024/01/18 07:25:34;;;;;;;84.97;45.58;;;;;;;;;;6227844;28;24884;-75
2024/01/18 07:28:36;;;;;;;85.18;43.97;;;;;;;;;;6227208;28;24431;-75
2024/01/18 07:31:39;;;;;;;79.18;42.33;;;;;;;;;;6227853;28;24428;-76
2024/01/18 07:34:41;;;;;;;73.47;39.63;;;;;;;;;;6226493;28;24616;-75
2024/01/18 07:37:43;;;;;;;75.50;40.22;;;;;;;;;;6230133;28;24421;-75
2024/01/18 07:40:44;;;;;;;71.07;38.50;;;;;;;;;;6228313;28;24562;-75
2024/01/18 07:43:46;;;;;;;71.97;39.28;;;;;;;;;;6229230;28;24435;-75
2024/01/18 07:46:51;;;;;;;71.28;38.15;;;;;;;;;;6227339;28;24475;-75
2024/01/18 07:49:53;;;;;;;67.47;35.92;;;;;;;;;;6211458;28;24713;-74
2024/01/18 07:52:55;;;;;;;71.73;39.53;;;;;;;;;;6228998;28;24523;-75
2024/01/18 07:55:56;;;;;;;73.65;39.88;;;;;;;;;;6229292;28;24770;-75
2024/01/18 07:58:58;;;;;;;78.78;41.33;;;;;;;;;;6225536;28;24431;-75
2024/01/18 08:02:02;;;;;;;72.72;40.28;;;;;;;;;;6226960;28;24487;-75
2024/01/18 08:05:03;;;;;;;73.40;39.58;;;;;;;;;;6228802;28;24474;-75
2024/01/18 08:08:06;;;;;;;72.57;38.10;;;;;;;;;;6227636;28;25088;-75
2024/01/18 08:11:10;;;;;;;72.00;38.10;;;;;;;;;;6226611;28;24654;-75
2024/01/18 08:14:13;;;;;;;66.65;36.15;;;;;;;;;;6226016;28;24416;-75
2024/01/18 08:17:17;;;;;;;68.50;36.65;;;;;;;;;;6227655;28;24471;-75
2024/01/18 08:20:19;;;;;;;68.85;35.95;;;;;;;;;;6228706;28;24428;-75
2024/01/18 08:23:23;;;;;;;70.47;38.00;;;;;;;;;;6227147;28;24444;-75
2024/01/18 08:26:25;;;;;;;71.35;37.65;;;;;;;;;;6228372;28;24421;-75
2024/01/18 08:29:27;;;;;;;78.47;41.53;;;;;;;;;;6211626;28;24444;-75
2024/01/18 08:32:34;;;;;;;77.80;40.27;;;;;;;;;;6227940;28;24567;-75
2024/01/18 08:35:36;;;;;;;76.72;40.47;;;;;;;;;;6228740;28;24509;-75
2024/01/18 08:38:37;;;;;;;74.03;39.33;;;;;;;;;;6228256;28;24428;-75
2024/01/18 08:41:39;;;;;;;75.22;41.28;;;;;;;;;;6226762;28;24427;-75
2024/01/18 08:44:45;;;;;;;78.65;41.53;;;;;;;;;;6228422;28;24961;-74
2024/01/18 08:47:48;;;;;;;74.88;40.65;;;;;;;;;;6226965;28;24482;-75
2024/01/18 08:50:50;;;;;;;71.70;39.65;;;;;;;;;;6226394;28;24428;-75
2024/01/18 08:53:52;;;;;;;71.57;37.67;;;;;;;;;;6228400;28;24954;-75
2024/01/18 08:56:56;;;;;;;65.90;35.90;;;;;;;;;;6226226;28;24436;-75
2024/01/18 08:59:58;;;;;;;68.95;37.25;;;;;;;;;;6226096;28;24993;-75
2024/01/18 09:03:01;;;;;;;65.47;36.58;;;;;;;;;;6227682;28;24789;-75
2024/01/18 09:06:04;;;;;;;66.45;36.20;;;;;;;;;;6226735;28;24471;-75
2024/01/18 09:09:09;;;;;;;64.40;35.08;;;;;;;;;;6226439;28;24935;-74
2024/01/18 09:12:11;;;;;;;63.88;35.30;;;;;;;;;;6231744;28;24443;-75
2024/01/18 09:15:13;;;;;;;63.38;35.10;;;;;;;;;;6227660;28;24864;-74
2024/01/18 09:18:16;;;;;;;70.90;37.63;;;;;;;;;;6226438;28;24424;-75
2024/01/18 09:21:18;;;;;;;64.72;35.92;;;;;;;;;;6227777;28;24506;-75
2024/01/18 09:24:21;;;;;;;68.47;35.87;;;;;;;;;;6225547;28;24420;-75
2024/01/18 09:27:23;;;;;;;68.70;36.30;;;;;;;;;;6224132;28;24432;-79
2024/01/18 09:30:26;;;;;;;70.45;37.20;;;;;;;;;;6226459;28;24506;-79
2024/01/18 09:33:30;;;;;;;68.57;37.13;;;;;;;;;;6225618;28;24429;-79
2024/01/18 09:36:32;;;;;;;65.53;35.35;;;;;;;;;;6227082;28;24821;-80
2024/01/18 09:39:34;;;;;;;66.83;34.93;;;;;;;;;;6226426;28;24841;-80
2024/01/18 09:42:37;;;;;;;72.07;37.35;;;;;;;;;;6226608;28;24436;-80
2024/01/18 09:45:43;;;;;;;73.00;37.42;;;;;;;;;;6221547;28;24553;-80
2024/01/18 09:48:46;;;;;;;68.18;35.45;;;;;;;;;;6227225;28;24499;-79
2024/01/18 09:51:48;;;;;;;70.03;35.17;;;;;;;;;;6227016;28;24424;-80
2024/01/18 09:54:50;;;;;;;70.60;34.88;;;;;;;;;;6226278;28;24431;-81
2024/01/18 09:57:56;;;;;;;65.97;35.08;;;;;;;;;;6225331;28;24631;-80
2024/01/18 10:01:00;;;;;;;65.37;34.17;;;;;;;;;;6227351;28;24499;-80
2024/01/18 10:04:03;;;;;;;65.47;34.30;;;;;;;;;;6224978;28;24528;-79
2024/01/18 10:07:08;;;;;;;65.20;34.92;;;;;;;;;;6226788;28;24435;-79
2024/01/18 10:10:13;;;;;;;64.30;34.03;;;;;;;;;;6192324;28;25050;-78
2024/01/18 10:13:15;;;;;;;70.23;35.83;;;;;;;;;;6225992;28;24439;-78
2024/01/18 10:16:27;;;;;;;66.35;34.92;;;;;;;;;;6225626;28;24457;-79
2024/01/18 10:19:31;;;;;;;65.68;34.40;;;;;;;;;;6224924;28;24439;-79
2024/01/18 10:22:33;;;;;;;61.45;32.17;;;;;;;;;;6226347;28;25050;-80
2024/01/18 10:25:35;;;;;;;60.50;32.88;;;;;;;;;;6226668;28;24512;-80
2024/01/18 10:28:37;;;;;;;65.67;32.13;;;;;;;;;;6225548;28;25060;-79
2024/01/18 10:31:42;;;;;;;60.50;31.10;;;;;;;;;;6227985;28;24413;-80
2024/01/18 10:34:46;;;;;;;61.58;31.48;;;;;;;;;;6224315;28;24425;-80
2024/01/18 10:37:48;;;;;;;57.40;31.33;;;;;;;;;;6230992;28;24501;-75
2024/01/18 10:40:51;;;;;;;57.17;30.60;;;;;;;;;;6230082;28;24424;-73
2024/01/18 10:43:53;;;;;;;58.80;31.63;;;;;;;;;;6228242;28;24429;-74
2024/01/18 10:46:56;;;;;;;56.95;30.27;;;;;;;;;;6229896;28;24428;-74
2024/01/18 10:50:00;;;;;;;58.17;31.20;;;;;;;;;;6229996;28;24471;-74
2024/01/18 10:53:02;;;;;;;54.63;29.27;;;;;;;;;;6228709;28;24621;-74
2024/01/18 10:56:04;;;;;;;57.00;29.63;;;;;;;;;;6229630;28;24847;-74
2024/01/18 10:59:07;;;;;;;56.38;29.70;;;;;;;;;;6229524;28;24955;-74
2024/01/18 11:02:09;;;;;;;55.33;31.55;;;;;;;;;;6230956;28;24698;-76
2024/01/18 11:05:14;;;;;;;56.58;30.42;;;;;;;;;;6212393;28;24417;-73
2024/01/18 11:08:17;;;;;;;58.25;28.90;;;;;;;;;;6226662;28;24623;-74
2024/01/18 11:11:19;;;;;;;48.50;28.27;;;;;;;;;;6228522;28;24727;-74
2024/01/18 11:14:22;;;;;;;53.58;29.38;;;;;;;;;;6228431;28;24676;-74
2024/01/18 11:17:24;;;;;;;50.75;28.15;;;;;;;;;;6229839;28;24435;-74
2024/01/18 11:20:29;;;;;;;51.53;28.70;;;;;;;;;;6229576;28;24821;-74
2024/01/18 11:23:36;;;;;;;49.28;28.73;;;;;;;;;;6229285;28;24424;-74
2024/01/18 11:26:38;;;;;;;51.00;28.38;;;;;;;;;;6228207;28;24428;-74
2024/01/18 11:29:41;;;;;;;49.97;28.20;;;;;;;;;;6227926;28;24467;-74
2024/01/18 11:32:44;;;;;;;50.90;28.50;;;;;;;;;;6227522;28;24431;-74
2024/01/18 11:35:49;;;;;;;54.70;30.08;;;;;;;;;;6209389;28;24777;-74
2024/01/18 11:38:52;;;;;;;57.83;29.98;;;;;;;;;;6228524;28;24623;-74
2024/01/18 11:41:54;;;;;;;54.83;29.40;;;;;;;;;;6229521;28;24428;-74
2024/01/18 11:44:57;;;;;;;53.25;30.13;;;;;;;;;;6229169;28;24836;-74
2024/01/18 11:47:58;;;;;;;55.88;30.50;;;;;;;;;;6227666;28;24420;-79
2024/01/18 11:51:03;;;;;;;54.78;29.20;;;;;;;;;;6228284;28;24499;-80
2024/01/18 11:54:06;;;;;;;53.63;28.25;;;;;;;;;;6227739;28;24420;-80
2024/01/18 11:57:14;;;;;;;52.70;28.05;;;;;;;;;;6229394;28;24689;-80
2024/01/18 12:00:16;;;;;;;50.15;28.60;;;;;;;;;;6229339;28;24847;-80
2024/01/18 12:03:18;;;;;;;50.05;27.45;;;;;;;;;;6228813;28;24500;-80
2024/01/18 12:06:23;;;;;;;51.08;27.02;;;;;;;;;;6228894;28;24436;-80
2024/01/18 12:09:27;;;;;;;54.90;27.63;;;;;;;;;;6226912;28;24809;-80
2024/01/18 12:12:29;;;;;;;56.53;28.65;;;;;;;;;;6227782;28;24432;-80
2024/01/18 12:15:31;;;;;;;58.23;29.10;;;;;;;;;;6226946;28;24753;-80
2024/01/18 12:18:39;;;;;;;57.07;29.07;;;;;;;;;;6221862;28;24661;-80
2024/01/18 12:21:42;;;;;;;53.43;28.23;;;;;;;;;;6232852;28;24891;-80
2024/01/18 12:24:45;;;;;;;58.70;30.02;;;;;;;;;;6226093;28;24493;-80
2024/01/18 12:27:47;;;;;;;56.95;29.13;;;;;;;;;;6227983;28;24809;-80
2024/01/18 12:30:49;;;;;;;53.73;28.20;;;;;;;;;;6228094;28;24464;-79
2024/01/18 12:33:51;;;;;;;57.42;28.83;;;;;;;;;;6226364;28;24443;-79
2024/01/18 12:36:54;;;;;;;54.30;28.80;;;;;;;;;;6221364;28;24432;-79
2024/01/18 12:39:56;;;;;;;56.35;29.73;;;;;;;;;;6228884;28;24427;-80
2024/01/18 12:43:02;;;;;;;52.27;27.50;;;;;;;;;;6226385;28;24444;-79
2024/01/18 12:46:04;;;;;;;54.20;29.10;;;;;;;;;;6227726;28;24423;-79
2024/01/18 12:49:06;;;;;;;49.80;27.83;;;;;;;;;;6228079;28;24484;-80
2024/01/18 12:52:09;;;;;;;51.30;27.30;;;;;;;;;;6228407;28;24420;-80
2024/01/18 12:55:11;;;;;;;52.50;28.57;;;;;;;;;;6225678;28;24955;-79
2024/01/18 12:58:13;;;;;;;51.70;28.02;;;;;;;;;;6224470;28;24460;-74
2024/01/18 13:01:28;;;;;;;53.50;27.90;;;;;;;;;;6224501;28;24896;-74
2024/01/18 13:04:31;;;;;;;50.43;28.17;;;;;;;;;;6225313;28;24474;-75
2024/01/18 13:07:35;;;;;;;49.63;27.15;;;;;;;;;;6226984;28;24471;-74
2024/01/18 13:10:38;;;;;;;50.67;27.00;;;;;;;;;;6226602;28;24464;-74
2024/01/18 13:13:41;;;;;;;50.88;27.35;;;;;;;;;;6222891;28;24439;-74
2024/01/18 13:16:44;;;;;;;56.90;29.45;;;;;;;;;;6225370;28;24416;-74
2024/01/18 13:19:46;;;;;;;55.15;28.65;;;;;;;;;;6224274;28;24435;-74
2024/01/18 13:22:50;;;;;;;54.08;27.92;;;;;;;;;;6223537;28;24428;-74
2024/01/18 13:25:51;;;;;;;56.90;29.08;;;;;;;;;;6216445;28;24432;-74
2024/01/18 13:28:54;;;;;;;55.63;29.23;;;;;;;;;;6224670;28;24467;-74
2024/01/18 13:31:56;;;;;;;57.53;29.80;;;;;;;;;;6221972;28;24498;-74
2024/01/18 13:34:58;;;;;;;57.33;29.02;;;;;;;;;;6223399;28;24834;-75
2024/01/18 13:38:01;;;;;;;51.25;27.75;;;;;;;;;;6222688;28;24432;-75
2024/01/18 13:41:03;;;;;;;53.10;26.95;;;;;;;;;;6226765;28;24420;-74
2024/01/18 13:44:07;;;;;;;67.10;35.25;;;;;;;;;;6226565;28;24436;-74
2024/01/18 13:47:08;;;;;;;155.38;83.03;;;;;;;;;;6228645;28;24884;-73
2024/01/18 13:50:11;;;;;;;103.10;53.57;;;;;;;;;;6226615;28;24550;-74
2024/01/18 13:53:18;;;;;;;100.05;53.47;;;;;;;;;;6227923;28;24460;-75
2024/01/18 13:56:23;;;;;;;71.27;36.67;;;;;;;;;;6228224;28;24431;-75
2024/01/18 13:59:25;;;;;;;116.20;56.03;;;;;;;;;;6227031;28;24447;-74
2024/01/18 14:02:28;;;;;;;97.17;46.57;;;;;;;;;;6226865;28;24634;-75
2024/01/18 14:05:30;;;;;;;66.18;33.10;;;;;;;;;;6224636;28;24844;-75
2024/01/18 14:08:34;;;;;;;54.85;28.90;;;;;;;;;;6225792;28;24420;-75
2024/01/18 14:11:37;;;;;;;55.40;28.15;;;;;;;;;;6230531;28;24440;-75
2024/01/18 14:14:39;;;;;;;51.93;27.00;;;;;;;;;;6229347;28;24638;-75
2024/01/18 14:17:41;;;;;;;59.67;30.90;;;;;;;;;;6231408;28;24508;-73
2024/01/18 14:20:43;;;;;;;65.20;31.70;;;;;;;;;;6229896;28;24630;-75
2024/01/18 14:23:46;;;;;;;65.27;31.70;;;;;;;;;;6230332;28;24851;-75
2024/01/18 14:26:51;;;;;;;63.00;31.77;;;;;;;;;;6231763;28;24431;-75
2024/01/18 14:29:53;;;;;;;64.80;32.60;;;;;;;;;;6230094;28;24627;-74
2024/01/18 14:32:55;;;;;;;62.15;31.73;;;;;;;;;;6228287;28;24472;-75
2024/01/18 14:35:56;;;;;;;65.75;32.25;;;;;;;;;;6231261;28;24424;-75
2024/01/18 14:39:00;;;;;;;62.50;32.03;;;;;;;;;;6230304;28;24451;-74
2024/01/18 14:42:01;;;;;;;67.05;33.28;;;;;;;;;;6224714;28;24443;-75
2024/01/18 14:45:05;;;;;;;67.97;34.03;;;;;;;;;;6230718;28;24513;-75
2024/01/18 14:48:10;;;;;;;72.90;34.53;;;;;;;;;;6228472;28;24880;-75
2024/01/18 14:51:12;;;;;;;73.32;34.67;;;;;;;;;;6228974;28;24555;-74
2024/01/18 14:54:15;;;;;;;69.93;34.17;;;;;;;;;;6227915;28;24635;-74
2024/01/18 14:57:18;;;;;;;69.25;33.67;;;;;;;;;;6228578;28;24443;-75
2024/01/18 15:00:20;;;;;;;78.10;36.70;;;;;;;;;;6230653;28;24424;-75
2024/01/18 15:03:22;;;;;;;74.55;36.45;;;;;;;;;;6227674;28;24516;-74
2024/01/18 15:06:24;;;;;;;73.63;35.85;;;;;;;;;;6228642;28;24420;-74
2024/01/18 15:09:27;;;;;;;76.88;35.85;;;;;;;;;;6229378;28;24838;-74
2024/01/18 15:12:29;;;;;;;80.57;38.23;;;;;;;;;;6229806;28;24504;-75
2024/01/18 15:15:32;;;;;;;79.15;39.30;;;;;;;;;;6227671;28;24844;-75
2024/01/18 15:18:34;;;;;;;80.63;38.40;;;;;;;;;;6228491;28;24504;-75
2024/01/18 15:21:38;;;;;;;81.13;37.03;;;;;;;;;;6210115;28;24876;-75
2024/01/18 15:24:44;;;;;;;80.30;38.03;;;;;;;;;;6227336;28;24595;-75
2024/01/18 15:27:46;;;;;;;83.27;37.30;;;;;;;;;;6228736;28;24432;-76
2024/01/18 15:30:47;;;;;;;79.60;36.60;;;;;;;;;;6227048;28;25665;-75
2024/01/18 15:33:49;;;;;;;82.72;38.53;;;;;;;;;;6225725;28;24433;-75
2024/01/18 15:36:52;;;;;;;82.32;38.53;;;;;;;;;;6229094;28;24439;-76
2024/01/18 15:39:56;;;;;;;85.60;38.20;;;;;;;;;;6226246;28;24844;-76
2024/01/18 15:42:58;;;;;;;85.13;39.13;;;;;;;;;;6227680;28;24925;-75
2024/01/18 15:46:00;;;;;;;86.85;40.75;;;;;;;;;;6223564;28;24459;-75
2024/01/18 15:49:03;;;;;;;195.30;95.75;;;;;;;;;;6225862;28;24455;-75
2024/01/18 15:52:06;;;;;;;131.98;61.83;;;;;;;;;;6230376;28;24456;-75
2024/01/18 15:55:14;;;;;;;119.45;55.53;;;;;;;;;;6227328;28;24502;-74
2024/01/18 15:58:15;;;;;;;104.70;48.67;;;;;;;;;;6229800;28;24491;-75
2024/01/18 16:01:19;;;;;;;95.10;45.58;;;;;;;;;;6224007;28;24449;-75
2024/01/18 16:04:23;;;;;;;81.30;38.50;;;;;;;;;;6228365;28;24412;-75
2024/01/18 16:07:25;;;;;;;80.63;38.53;;;;;;;;;;6228710;28;24429;-75
2024/01/18 16:10:28;;;;;;;77.07;37.03;;;;;;;;;;6225279;28;24431;-75
2024/01/18 16:13:30;;;;;;;82.13;38.70;;;;;;;;;;6218462;28;24536;-76
2024/01/18 16:16:32;;;;;;;77.50;37.95;;;;;;;;;;6226790;28;24742;-75
2024/01/18 16:19:36;;;;;;;79.40;37.28;;;;;;;;;;6225753;28;24438;-75
2024/01/18 16:22:38;;;;;;;82.93;39.97;;;;;;;;;;6228300;28;24432;-75
2024/01/18 16:25:41;;;;;;;77.90;38.65;;;;;;;;;;6227903;28;24832;-75
2024/01/18 16:28:43;;;;;;;78.03;39.03;;;;;;;;;;6227987;28;25107;-75
2024/01/18 16:31:45;;;;;;;78.63;39.00;;;;;;;;;;6226443;28;24420;-75
2024/01/18 16:34:47;;;;;;;81.40;38.40;;;;;;;;;;6227995;28;24490;-75
2024/01/18 16:37:49;;;;;;;85.30;42.03;;;;;;;;;;6223372;28;24455;-75
2024/01/18 16:40:53;;;;;;;83.63;39.87;;;;;;;;;;6236687;28;24649;-75
2024/01/18 16:43:54;;;;;;;87.97;42.55;;;;;;;;;;6227651;28;24424;-74
2024/01/18 16:46:56;;;;;;;86.07;41.33;;;;;;;;;;6227860;28;24710;-75
2024/01/18 16:49:58;;;;;;;83.97;42.28;;;;;;;;;;6227775;28;24620;-75
2024/01/18 16:53:02;;;;;;;80.03;41.67;;;;;;;;;;6209296;28;24859;-75
2024/01/18 16:56:06;;;;;;;82.55;42.10;;;;;;;;;;6226252;28;24455;-75
2024/01/18 16:59:08;;;;;;;79.07;40.47;;;;;;;;;;6226016;28;24443;-75
2024/01/18 17:02:10;;;;;;;84.45;42.03;;;;;;;;;;6227816;28;24428;-75
2024/01/18 17:05:12;;;;;;;82.50;41.43;;;;;;;;;;6227914;28;24836;-75
2024/01/18 17:08:14;;;;;;;79.55;40.40;;;;;;;;;;6224695;28;24516;-74
2024/01/18 17:11:20;;;;;;;79.20;39.75;;;;;;;;;;6226049;28;24412;-75
2024/01/18 17:14:21;;;;;;;80.30;41.38;;;;;;;;;;6225886;28;24436;-75
2024/01/18 17:17:24;;;;;;;75.70;39.17;;;;;;;;;;6221725;28;24443;-75
2024/01/18 17:20:27;;;;;;;78.88;41.00;;;;;;;;;;6226527;28;24543;-75
2024/01/18 17:23:29;;;;;;;76.93;40.85;;;;;;;;;;6225547;28;24847;-75
2024/01/18 17:26:33;;;;;;;78.75;41.53;;;;;;;;;;6225797;28;24421;-75
2024/01/18 17:29:35;;;;;;;81.82;43.05;;;;;;;;;;6226739;28;24814;-75
2024/01/18 17:32:38;;;;;;;78.13;41.92;;;;;;;;;;6222074;28;24439;-74
2024/01/18 17:35:40;;;;;;;80.28;42.35;;;;;;;;;;6223306;28;24442;-75
2024/01/18 17:38:42;;;;;;;83.37;43.30;;;;;;;;;;6223881;28;24443;-74
2024/01/18 17:41:45;;;;;;;79.75;41.83;;;;;;;;;;6224813;28;24439;-75